Time;durP1;ratioP1;P1;durP2;ratioP2;P2;SDS_P1;SDS_P2;PMS_P1;PMS_P2;Temp;Humidity;BMP_temperature;BMP_pressure;BME280_temperature;BME280_humidity;BME280_pressure;Samples;Min_cycle;Max_cycle;Signal;HPM_P1;HPM_P2
2022/02/04 00:24:09;;;;;;;16.95;9.65;;;6.10;99.90;;;;;;5093463;28;20048;-85
2022/02/04 00:26:44;;;;;;;14.95;7.40;;;5.90;99.90;;;;;;5112701;28;20071;-85
2022/02/04 00:29:50;;;;;;;13.55;7.68;;;5.80;99.90;;;;;;5089528;28;20044;-85
2022/02/04 00:32:06;;;;;;;22.77;8.73;;;5.80;99.90;;;;;;5071671;28;20101;-85
2022/02/04 00:45:50;;;;;;;15.85;8.88;;;5.70;99.90;;;;;;5110317;28;20076;-85
2022/02/04 00:51:43;;;;;;;13.18;8.73;;;5.70;99.90;;;;;;5103034;28;20043;-84
2022/02/04 00:54:04;;;;;;;21.17;9.02;;;5.70;99.90;;;;;;5089656;28;20116;-84
2022/02/04 00:57:00;;;;;;;11.50;6.72;;;5.70;99.90;;;;;;5111371;27;20041;-85
2022/02/04 01:13:27;;;;;;;16.55;8.23;;;5.90;99.90;;;;;;5095396;28;20091;-84
2022/02/04 01:26:51;;;;;;;13.52;8.40;;;6.00;99.90;;;;;;5116480;28;20097;-86
2022/02/04 01:29:17;;;;;;;13.75;7.47;;;6.00;99.90;;;;;;5099589;28;20044;-85
2022/02/04 01:31:44;;;;;;;;;;;6.00;99.90;;;;;;5099558;28;20047;-85
2022/02/04 01:34:09;;;;;;;12.60;8.20;;;6.00;99.90;;;;;;5089164;28;19915;-84
2022/02/04 01:36:35;;;;;;;12.80;7.25;;;6.00;99.90;;;;;;5116504;28;20036;-85
2022/02/04 01:39:01;;;;;;;13.60;8.75;;;6.00;99.90;;;;;;5097643;28;20055;-85
2022/02/04 01:41:28;;;;;;;;;;;6.00;99.90;;;;;;5130338;27;20042;-84
2022/02/04 01:43:54;;;;;;;9.38;6.65;;;6.00;99.90;;;;;;5116045;28;19915;-86
2022/02/04 01:46:20;;;;;;;13.02;8.82;;;6.00;99.90;;;;;;5097317;28;20048;-86
2022/02/04 01:48:46;;;;;;;10.45;5.80;;;6.00;99.90;;;;;;5116264;28;20047;-85
2022/02/04 01:51:13;;;;;;;16.50;9.70;;;6.10;99.90;;;;;;5098956;28;20040;-87
2022/02/04 01:53:39;;;;;;;16.13;8.93;;;6.10;99.90;;;;;;5132712;27;20069;-84
2022/02/04 01:56:08;;;;;;;14.27;6.55;;;6.10;99.90;;;;;;5100300;28;20050;-84
2022/02/04 01:58:34;;;;;;;11.63;7.63;;;6.10;99.90;;;;;;5079518;28;20043;-83
2022/02/04 02:01:00;;;;;;;11.35;7.07;;;6.10;99.90;;;;;;5118073;28;20769;-85
2022/02/04 02:03:27;;;;;;;7.72;6.30;;;6.20;99.90;;;;;;5116739;28;20047;-86
2022/02/04 02:05:56;;;;;;;;;;;6.20;99.90;;;;;;5095852;28;20032;-86
2022/02/04 02:08:22;;;;;;;8.57;5.50;;;6.20;99.90;;;;;;5118527;28;20257;-85
2022/02/04 02:10:49;;;;;;;14.30;7.25;;;6.20;99.90;;;;;;5115629;28;20054;-84
2022/02/04 02:16:06;;;;;;;14.13;7.70;;;6.20;99.90;;;;;;5117363;28;20400;-87
2022/02/04 02:39:09;;;;;;;10.15;7.10;;;6.40;99.90;;;;;;5064264;28;20048;-87
2022/02/04 02:42:04;;;;;;;10.95;6.93;;;6.40;99.90;;;;;;5109650;28;20126;-83
2022/02/04 02:52:01;;;;;;;17.45;8.07;;;6.40;99.90;;;;;;5110413;28;20042;-86
2022/02/04 03:02:16;;;;;;;12.43;7.18;;;6.60;99.90;;;;;;5071035;28;20044;-87
2022/02/04 03:04:42;;;;;;;14.00;7.65;;;6.60;99.90;;;;;;5079585;28;20395;-86
2022/02/04 03:07:08;;;;;;;14.18;7.75;;;6.60;99.90;;;;;;5114320;28;20036;-85
2022/02/04 03:09:33;;;;;;;10.63;6.10;;;6.70;99.90;;;;;;5114255;28;20082;-84
2022/02/04 03:11:59;;;;;;;14.82;6.95;;;6.60;99.90;;;;;;5114131;28;20039;-86
2022/02/04 03:14:27;;;;;;;8.25;6.38;;;6.80;99.90;;;;;;5114876;28;20361;-85
2022/02/04 03:16:52;;;;;;;10.65;7.15;;;6.60;99.90;;;;;;5115068;28;20044;-87
2022/02/04 03:19:19;;;;;;;12.90;7.85;;;6.60;99.90;;;;;;5113277;28;20389;-84
2022/02/04 03:21:46;;;;;;;9.85;5.57;;;6.90;99.90;;;;;;5115066;28;20036;-86
2022/02/04 03:24:16;;;;;;;11.45;6.63;;;6.70;99.90;;;;;;5109973;28;20055;-84
2022/02/04 03:29:08;;;;;;;17.25;7.65;;;6.60;99.90;;;;;;5113180;28;20404;-85
2022/02/04 03:31:42;;;;;;;14.32;8.93;;;6.70;99.90;;;;;;5099792;28;20040;-86
2022/02/04 03:34:08;;;;;;;14.52;7.22;;;6.70;99.90;;;;;;5096472;28;20047;-85
2022/02/04 03:36:35;;;;;;;9.40;7.30;;;6.70;99.90;;;;;;5113690;28;20046;-86
2022/02/04 03:39:00;;;;;;;10.65;7.05;;;6.60;99.90;;;;;;5100632;28;20055;-84
2022/02/04 03:41:26;;;;;;;11.95;7.95;;;6.70;99.90;;;;;;5096424;28;20040;-83
2022/02/04 03:43:52;;;;;;;14.40;7.88;;;6.60;99.90;;;;;;5113220;28;20039;-87
2022/02/04 03:46:17;;;;;;;11.18;7.07;;;6.60;99.90;;;;;;5095824;28;20031;-84
2022/02/04 03:48:43;;;;;;;14.77;8.25;;;6.70;99.90;;;;;;5098458;28;20075;-85
2022/02/04 03:51:09;;;;;;;11.73;8.18;;;6.80;99.90;;;;;;5079263;28;20119;-85
2022/02/04 03:53:34;;;;;;;16.45;7.30;;;6.80;99.90;;;;;;5113397;28;20047;-85
2022/02/04 03:56:00;;;;;;;12.25;6.80;;;6.80;99.90;;;;;;5080098;28;20047;-85
2022/02/04 03:58:27;;;;;;;13.38;6.53;;;6.80;99.90;;;;;;5079510;28;20036;-84
2022/02/04 04:00:53;;;;;;;12.13;6.70;;;6.70;99.90;;;;;;5074164;28;20075;-86
2022/02/04 04:03:19;;;;;;;10.45;7.28;;;6.80;99.90;;;;;;5065101;28;20507;-87
2022/02/04 04:05:48;;;;;;;12.27;6.15;;;6.80;99.90;;;;;;5111758;28;20043;-85
2022/02/04 04:08:17;;;;;;;18.85;9.80;;;6.80;99.90;;;;;;5113393;28;20362;-86
2022/02/04 04:10:44;;;;;;;13.57;6.82;;;6.80;99.90;;;;;;5114727;28;20492;-84
2022/02/04 04:13:11;;;;;;;15.30;7.88;;;6.80;99.90;;;;;;5096087;28;20050;-86
2022/02/04 04:15:36;;;;;;;13.98;7.35;;;6.80;99.90;;;;;;5086357;28;20109;-85
2022/02/04 04:18:03;;;;;;;14.15;6.50;;;6.80;99.90;;;;;;5093949;28;20040;-85
2022/02/04 04:20:29;;;;;;;;;;;6.80;99.90;;;;;;5114057;28;20040;-83
2022/02/04 04:22:56;;;;;;;9.52;6.93;;;6.80;99.90;;;;;;5117052;28;19920;-85
2022/02/04 04:25:22;;;;;;;20.42;8.90;;;6.90;99.90;;;;;;5077569;28;20047;-82
2022/02/04 04:27:49;;;;;;;13.05;9.02;;;6.90;99.90;;;;;;5075915;28;20036;-84
2022/02/04 04:30:16;;;;;;;7.80;5.18;;;6.90;99.90;;;;;;5093764;28;20035;-85
2022/02/04 04:32:43;;;;;;;18.20;8.77;;;6.90;99.90;;;;;;5113559;28;20077;-83
2022/02/04 04:35:11;;;;;;;14.52;7.75;;;6.90;99.90;;;;;;5075603;28;20388;-84
2022/02/04 04:37:44;;;;;;;13.45;7.05;;;7.00;99.90;;;;;;5108567;28;20040;-85
2022/02/04 04:40:34;;;;;;;12.48;6.55;;;6.90;99.90;;;;;;5112396;28;20111;-85
2022/02/04 04:43:19;;;;;;;15.27;7.25;;;7.00;99.90;;;;;;5112245;28;20063;-84
2022/02/04 05:27:56;;;;;;;13.45;5.80;;;7.20;99.90;;;;;;5094782;28;20054;-86
2022/02/04 05:29:51;;;;;;;8.25;4.65;;;7.20;99.90;;;;;;5089311;28;20080;-84
2022/02/04 05:32:17;;;;;;;7.28;4.50;;;7.20;99.90;;;;;;5112449;28;20032;-85
2022/02/04 05:34:45;;;;;;;11.95;6.47;;;7.10;99.90;;;;;;5094793;28;20127;-86
2022/02/04 05:37:13;;;;;;;11.63;5.90;;;7.20;99.90;;;;;;5096229;28;20077;-86
2022/02/04 05:39:51;;;;;;;18.13;6.97;;;7.20;99.90;;;;;;5111732;28;20063;-85
2022/02/04 05:42:21;;;;;;;8.90;4.05;;;7.20;99.90;;;;;;5082652;28;20040;-85
2022/02/04 05:44:54;;;;;;;10.23;5.55;;;7.20;99.90;;;;;;5117312;28;20044;-86
2022/02/04 05:47:20;;;;;;;5.95;3.88;;;7.10;99.90;;;;;;5085030;28;20396;-86
2022/02/04 05:50:02;;;;;;;16.55;7.28;;;7.10;99.90;;;;;;5099676;28;20068;-84
2022/02/04 05:52:36;;;;;;;12.25;5.60;;;7.20;99.90;;;;;;5086060;28;20042;-86
2022/02/04 05:55:25;;;;;;;10.75;5.95;;;7.20;99.90;;;;;;5083288;28;20039;-85
2022/02/04 05:58:00;;;;;;;8.07;5.00;;;7.20;99.90;;;;;;5098721;28;20046;-85
2022/02/04 06:23:55;;;;;;;7.22;4.65;;;7.30;99.90;;;;;;5089559;28;20052;-85
2022/02/04 06:26:21;;;;;;;5.47;4.80;;;7.30;99.90;;;;;;5090508;28;20381;-84
2022/02/04 06:28:46;;;;;;;17.83;5.47;;;7.30;99.90;;;;;;5088551;28;20465;-85
2022/02/04 06:31:12;;;;;;;8.20;5.22;;;7.30;99.90;;;;;;5075320;28;20500;-84
2022/02/04 06:33:39;;;;;;;9.27;4.90;;;7.30;99.90;;;;;;5114668;28;20481;-83
2022/02/04 06:36:05;;;;;;;9.18;3.67;;;7.30;99.90;;;;;;5096539;28;20048;-85
2022/02/04 06:38:31;;;;;;;13.63;5.13;;;7.30;99.90;;;;;;5114096;28;20185;-86
2022/02/04 06:40:57;;;;;;;8.75;5.35;;;7.30;99.90;;;;;;5098015;28;20073;-84
2022/02/04 06:43:23;;;;;;;13.85;5.18;;;7.30;99.90;;;;;;5096759;28;20036;-86
2022/02/04 06:45:48;;;;;;;7.30;3.92;;;7.30;99.90;;;;;;5079979;28;20435;-85
2022/02/04 06:48:14;;;;;;;9.75;5.80;;;7.30;99.90;;;;;;5096661;28;20039;-85
2022/02/04 06:50:40;;;;;;;7.93;5.30;;;7.30;99.90;;;;;;5080783;28;20123;-85
2022/02/04 06:53:06;;;;;;;9.82;5.75;;;7.30;99.90;;;;;;5066430;28;20040;-85
2022/02/04 06:55:32;;;;;;;8.82;4.38;;;7.30;99.90;;;;;;5071048;28;20528;-83
2022/02/04 06:57:58;;;;;;;6.55;4.32;;;7.30;99.90;;;;;;5088084;28;20473;-85
2022/02/04 07:00:27;;;;;;;14.30;3.92;;;7.30;99.90;;;;;;5113516;28;20092;-84
2022/02/04 07:02:53;;;;;;;7.75;4.40;;;7.30;99.90;;;;;;5114353;28;20435;-85
2022/02/04 07:05:21;;;;;;;10.00;4.10;;;7.40;99.90;;;;;;5094542;28;20035;-84
2022/02/04 07:08:00;;;;;;;11.13;4.47;;;7.40;99.90;;;;;;5081070;28;20119;-86
2022/02/04 07:13:27;;;;;;;5.78;3.88;;;7.40;99.90;;;;;;5081139;28;20146;-84
2022/02/04 07:16:10;;;;;;;7.00;4.03;;;7.40;99.90;;;;;;5098637;28;20430;-87
2022/02/04 07:21:03;;;;;;;6.60;3.72;;;7.40;99.90;;;;;;5079662;28;20134;-85
2022/02/04 07:23:30;;;;;;;6.35;3.67;;;7.40;99.90;;;;;;5094298;28;20049;-84
2022/02/04 07:25:55;;;;;;;6.93;3.72;;;7.40;99.90;;;;;;5113680;28;20035;-85
2022/02/04 07:28:23;;;;;;;12.75;4.75;;;7.40;99.90;;;;;;5096673;28;20503;-84
2022/02/04 07:30:49;;;;;;;8.13;3.45;;;7.40;99.90;;;;;;5103621;28;20055;-86
2022/02/04 07:33:19;;;;;;;;;;;7.50;99.90;;;;;;5106315;28;20040;-86
2022/02/04 07:38:47;;;;;;;4.93;3.25;;;7.50;99.90;;;;;;5105698;28;20069;-84
2022/02/04 07:41:13;;;;;;;13.88;4.18;;;7.50;99.90;;;;;;5072924;28;20036;-85
2022/02/04 07:43:39;;;;;;;;;;;7.50;99.90;;;;;;5065364;28;20046;-85
2022/02/04 07:46:05;;;;;;;9.35;4.78;;;7.50;99.90;;;;;;5088048;28;19916;-85
2022/02/04 07:48:31;;;;;;;8.82;3.80;;;7.60;99.90;;;;;;5080095;28;20472;-86
2022/02/04 07:50:57;;;;;;;9.65;3.92;;;7.60;99.90;;;;;;5079689;28;20145;-87
2022/02/04 07:53:30;;;;;;;4.30;2.95;;;7.60;99.90;;;;;;5080129;28;20078;-86
2022/02/04 07:55:57;;;;;;;3.92;3.13;;;7.60;99.90;;;;;;5068848;28;20485;-86
2022/02/04 07:58:23;;;;;;;6.63;3.70;;;7.60;99.90;;;;;;5090284;28;20040;-86
2022/02/04 08:00:50;;;;;;;6.50;4.05;;;7.60;99.90;;;;;;5091956;28;20084;-85
2022/02/04 08:05:45;;;;;;;8.23;4.85;;;7.60;99.90;;;;;;5114264;28;20373;-87
2022/02/04 08:08:21;;;;;;;4.13;2.70;;;7.60;99.90;;;;;;5081621;28;20076;-84
2022/02/04 08:13:49;;;;;;;5.53;3.75;;;7.70;99.90;;;;;;5113124;28;20361;-86
2022/02/04 08:35:32;;;;;;;4.93;2.78;;;7.80;99.90;;;;;;5078820;28;20040;-85
2022/02/04 08:38:18;;;;;;;3.35;2.53;;;7.80;99.90;;;;;;5112780;28;20625;-85
2022/02/04 08:56:52;;;;;;;8.48;3.53;;;8.00;99.90;;;;;;5116029;28;20043;-86
2022/02/04 09:04:42;;;;;;;6.00;3.25;;;8.00;99.90;;;;;;5100381;28;20119;-86
2022/02/04 09:07:18;;;;;;;5.35;2.95;;;8.00;99.90;;;;;;5107306;28;20171;-84
2022/02/04 09:09:58;;;;;;;2.83;2.40;;;8.10;99.90;;;;;;5070370;28;20039;-85
2022/02/04 09:22:52;;;;;;;5.72;2.95;;;8.30;99.90;;;;;;5121006;27;20139;-86
2022/02/04 09:25:18;;;;;;;4.20;3.08;;;8.30;99.90;;;;;;5119317;27;20092;-85
2022/02/04 09:27:45;;;;;;;6.78;3.83;;;8.30;99.90;;;;;;5130115;27;20047;-86
2022/02/04 09:30:15;;;;;;;6.00;3.72;;;8.30;99.90;;;;;;5123300;27;20150;-84
2022/02/04 09:32:41;;;;;;;5.88;2.88;;;8.30;99.90;;;;;;5119978;27;20047;-86
2022/02/04 09:35:10;;;;;;;3.25;2.60;;;8.30;99.90;;;;;;5127318;27;20509;-86
2022/02/04 09:37:36;;;;;;;4.38;3.17;;;8.30;99.90;;;;;;5116729;28;20035;-85
2022/02/04 09:40:06;;;;;;;5.53;4.30;;;8.40;99.90;;;;;;5116491;28;20385;-86
2022/02/04 09:42:32;;;;;;;7.57;3.67;;;8.30;99.90;;;;;;5118202;27;20052;-84
2022/02/04 09:44:59;;;;;;;6.72;3.60;;;8.40;99.90;;;;;;5127572;27;20042;-86
2022/02/04 09:47:32;;;;;;;14.48;3.55;;;8.30;99.90;;;;;;5116738;27;20538;-86
2022/02/04 09:50:00;;;;;;;8.35;3.55;;;8.30;99.90;;;;;;5108029;27;20117;-87
2022/02/04 10:12:06;;;;;;;6.20;4.10;;;8.20;99.90;;;;;;5117049;27;20042;-87
2022/02/04 10:17:09;;;;;;;5.53;3.70;;;8.10;99.90;;;;;;5120890;27;20094;-85
2022/02/04 10:22:06;;;;;;;7.10;4.68;;;8.20;99.90;;;;;;5115570;27;20507;-87
2022/02/04 10:24:33;;;;;;;6.68;4.43;;;8.30;99.90;;;;;;5107095;27;20051;-86
2022/02/04 10:27:11;;;;;;;5.55;3.85;;;8.30;99.90;;;;;;5107585;27;20066;-86
2022/02/04 10:29:40;;;;;;;6.65;2.97;;;8.40;99.90;;;;;;5119089;27;20054;-88
2022/02/04 10:32:06;;;;;;;9.85;5.65;;;8.40;99.90;;;;;;5108404;28;20100;-83
2022/02/04 10:34:33;;;;;;;7.43;3.78;;;8.50;99.90;;;;;;5126839;27;20155;-87
2022/02/04 10:39:48;;;;;;;7.80;4.15;;;8.60;99.90;;;;;;5117387;27;20046;-88
2022/02/04 10:45:32;;;;;;;5.05;3.83;;;8.60;99.90;;;;;;5113374;27;20043;-88
2022/02/04 10:56:17;;;;;;;6.13;4.22;;;8.80;99.90;;;;;;5105186;27;20050;-86
2022/02/04 11:04:25;;;;;;;9.05;3.88;;;8.90;99.90;;;;;;5115489;28;20043;-88
2022/02/04 11:32:23;;;;;;;4.72;2.92;;;9.00;99.90;;;;;;5123075;27;20047;-89
2022/02/04 11:50:56;;;;;;;4.35;3.00;;;9.10;99.90;;;;;;5114619;27;19938;-85
2022/02/04 11:52:47;;;;;;;4.40;2.40;;;9.10;99.90;;;;;;5117743;27;20173;-87
2022/02/04 11:55:14;;;;;;;3.95;2.72;;;9.20;99.90;;;;;;5114085;27;20602;-85
2022/02/04 11:58:03;;;;;;;3.72;2.63;;;9.20;99.90;;;;;;5116166;27;20045;-87
2022/02/04 12:00:37;;;;;;;3.85;2.72;;;9.20;99.90;;;;;;5117385;27;20047;-85
2022/02/04 12:03:36;;;;;;;6.03;3.00;;;9.20;99.90;;;;;;5121318;27;20035;-87
2022/02/04 12:06:03;;;;;;;6.10;2.50;;;9.20;99.90;;;;;;5113976;28;20461;-88
2022/02/04 12:08:31;;;;;;;4.28;2.65;;;9.20;99.90;;;;;;5105703;28;20054;-86
2022/02/04 12:11:05;;;;;;;3.88;2.58;;;9.20;99.90;;;;;;5114680;28;20043;-88
2022/02/04 12:14:09;;;;;;;5.05;1.92;;;9.20;99.90;;;;;;5107833;28;20039;-84
2022/02/04 12:16:58;;;;;;;12.65;2.10;;;9.20;99.90;;;;;;5131108;27;20039;-86
2022/02/04 12:19:35;;;;;;;4.78;2.97;;;9.20;99.90;;;;;;5116753;27;20569;-85
2022/02/04 12:22:03;;;;;;;7.90;2.45;;;9.30;99.90;;;;;;5106024;27;20099;-88
2022/02/04 12:24:37;;;;;;;3.63;2.13;;;9.30;99.90;;;;;;5086102;28;20485;-86
2022/02/04 12:27:35;;;;;;;4.82;2.58;;;9.30;99.90;;;;;;5114287;27;20177;-87
2022/02/04 12:30:30;;;;;;;4.75;2.20;;;9.30;99.90;;;;;;5101427;28;20047;-86
2022/02/04 12:32:56;;;;;;;4.03;2.67;;;9.30;99.90;;;;;;5107476;28;20038;-85
2022/02/04 12:35:28;;;;;;;3.00;2.35;;;9.20;99.90;;;;;;5100683;28;20192;-87
2022/02/04 12:37:54;;;;;;;2.25;1.85;;;9.20;99.90;;;;;;5102006;28;20778;-87
2022/02/04 12:40:21;;;;;;;5.15;2.17;;;9.20;99.90;;;;;;5115460;28;20044;-87
2022/02/04 12:42:47;;;;;;;4.55;3.33;;;9.20;99.90;;;;;;5094246;28;20034;-86
2022/02/04 12:45:14;;;;;;;3.95;2.00;;;9.10;99.90;;;;;;5110045;28;20035;-85
2022/02/04 12:47:41;;;;;;;2.53;2.03;;;9.10;99.90;;;;;;5107393;27;20395;-86
2022/02/04 12:50:08;;;;;;;3.35;2.40;;;9.10;99.90;;;;;;5089142;27;20047;-86
2022/02/04 12:52:47;;;;;;;2.88;2.58;;;9.00;99.90;;;;;;5095202;27;20042;-84
2022/02/04 12:55:33;;;;;;;4.05;2.05;;;8.90;99.90;;;;;;5119343;27;20499;-85
2022/02/04 12:58:14;;;;;;;3.45;1.95;;;8.80;99.90;;;;;;5118847;27;20039;-81
2022/02/04 13:03:14;;;;;;;4.57;2.30;;;8.50;99.90;;;;;;5106932;27;20095;-83
2022/02/04 13:09:21;;;;;;;1.85;1.55;;;8.20;99.90;;;;;;5115511;27;20453;-84
2022/02/04 13:11:35;;;;;;;6.05;2.50;;;7.80;99.90;;;;;;5112802;28;20052;-85
2022/02/04 13:14:02;;;;;;;2.75;1.80;;;8.00;99.90;;;;;;5086111;27;20046;-82
2022/02/04 13:16:30;;;;;;;2.55;1.80;;;8.00;99.90;;;;;;5119484;27;20043;-83
2022/02/04 13:19:01;;;;;;;3.47;2.13;;;7.90;99.90;;;;;;5121474;27;20114;-81
2022/02/04 13:21:28;;;;;;;1.40;1.30;;;7.80;99.90;;;;;;5113646;27;20046;-83
2022/02/04 13:24:00;;;;;;;4.35;1.17;;;7.60;99.90;;;;;;5112925;28;20052;-82
2022/02/04 13:26:29;;;;;;;0.82;0.73;;;6.90;99.90;;;;;;5113755;28;20123;-84
2022/02/04 13:29:00;;;;;;;0.82;0.70;;;6.20;99.90;;;;;;5104107;27;20046;-82
2022/02/04 13:31:27;;;;;;;0.80;0.80;;;5.50;99.90;;;;;;5121183;27;20044;-87
2022/02/04 13:33:56;;;;;;;4.78;0.73;;;5.10;99.90;;;;;;5085205;28;20082;-85
2022/02/04 13:36:39;;;;;;;1.40;1.35;;;4.80;99.90;;;;;;5117214;27;20051;-81
2022/02/04 13:42:34;;;;;;;1.45;1.13;;;4.50;99.90;;;;;;5125164;27;20371;-86
2022/02/04 13:45:12;;;;;;;4.63;1.45;;;4.40;99.90;;;;;;5101123;28;20031;-85
2022/02/04 13:50:25;;;;;;;0.80;0.80;;;4.20;99.90;;;;;;5111041;27;20190;-84
2022/02/04 13:53:07;;;;;;;0.90;0.75;;;4.10;99.90;;;;;;5116287;27;20079;-84
2022/02/04 14:01:18;;;;;;;1.23;1.13;;;3.50;99.90;;;;;;5116489;28;20085;-86
2022/02/04 14:03:49;;;;;;;6.30;1.25;;;3.90;99.90;;;;;;5126734;27;20036;-82
2022/02/04 14:06:25;;;;;;;0.80;0.80;;;3.30;99.90;;;;;;5102062;28;20048;-84
2022/02/04 14:08:55;;;;;;;0.73;0.73;;;3.20;99.90;;;;;;5115850;27;20063;-84
2022/02/04 14:11:39;;;;;;;3.40;1.15;;;3.20;99.90;;;;;;5105559;28;20039;-86
2022/02/04 14:14:07;;;;;;;1.85;1.02;;;3.30;99.90;;;;;;5089744;27;20042;-87
2022/02/04 14:16:34;;;;;;;0.80;0.80;;;3.80;99.90;;;;;;5106936;28;20051;-88
2022/02/04 14:19:00;;;;;;;1.10;0.93;;;3.20;99.90;;;;;;5106840;28;20046;-87
2022/02/04 14:21:26;;;;;;;1.70;0.82;;;3.20;99.90;;;;;;5117957;27;20050;-86
2022/02/04 14:23:55;;;;;;;5.05;0.93;;;3.00;99.90;;;;;;5113356;28;20039;-87
2022/02/04 14:26:31;;;;;;;1.50;1.13;;;3.10;99.90;;;;;;5098129;28;20130;-87
2022/02/04 14:29:15;;;;;;;0.70;0.70;;;3.10;99.90;;;;;;5120180;27;20051;-84
2022/02/04 14:37:31;;;;;;;1.83;1.10;;;3.20;99.90;;;;;;5119373;27;20142;-85
2022/02/04 15:00:31;;;;;;;0.98;0.88;;;2.90;99.90;;;;;;5112511;27;20465;-86
2022/02/04 15:02:23;;;;;;;0.80;0.80;;;2.90;99.90;;;;;;5097643;27;20052;-87
2022/02/04 15:04:51;;;;;;;1.05;0.93;;;2.90;99.90;;;;;;5098952;27;20056;-85
2022/02/04 15:07:18;;;;;;;1.17;0.90;;;2.90;99.90;;;;;;5108157;28;20043;-87
2022/02/04 15:09:52;;;;;;;0.75;0.75;;;3.10;99.90;;;;;;5105558;27;20039;-88
2022/02/04 15:12:18;;;;;;;1.75;0.90;;;3.00;99.90;;;;;;5078584;27;20040;-84
2022/02/04 15:14:44;;;;;;;1.70;1.10;;;3.00;99.90;;;;;;5097578;27;20392;-83
2022/02/04 15:17:10;;;;;;;2.30;0.85;;;3.00;99.90;;;;;;5109192;27;20039;-86
2022/02/04 15:19:36;;;;;;;0.90;0.90;;;3.00;99.90;;;;;;5096374;28;20039;-85
2022/02/04 15:22:07;;;;;;;3.50;1.10;;;3.00;99.90;;;;;;5101768;28;20123;-85
2022/02/04 15:24:33;;;;;;;0.68;0.68;;;2.90;99.90;;;;;;5112204;27;20051;-82
2022/02/04 15:27:00;;;;;;;2.53;1.08;;;3.00;99.90;;;;;;5100870;27;20047;-85
2022/02/04 15:29:25;;;;;;;0.70;0.70;;;2.90;99.90;;;;;;5107437;28;20104;-86
2022/02/04 15:31:55;;;;;;;0.98;0.82;;;3.00;99.90;;;;;;5111024;28;20043;-84
2022/02/04 15:34:23;;;;;;;1.10;1.05;;;3.00;99.90;;;;;;5098853;28;20047;-85
2022/02/04 15:36:49;;;;;;;4.80;1.17;;;3.00;99.90;;;;;;5117527;27;20051;-86
2022/02/04 15:39:25;;;;;;;1.88;0.95;;;3.00;99.90;;;;;;5115047;28;20043;-85
2022/02/04 15:41:54;;;;;;;10.07;1.13;;;3.00;99.90;;;;;;5115560;27;20407;-85
2022/02/04 15:52:46;;;;;;;2.60;1.45;;;3.10;99.90;;;;;;5090298;27;20496;-85
2022/02/04 15:57:57;;;;;;;2.85;1.70;;;3.20;99.90;;;;;;5106479;28;20040;-86
2022/02/04 16:00:38;;;;;;;2.65;2.05;;;3.80;99.90;;;;;;5110235;27;20122;-84
2022/02/04 16:03:31;;;;;;;2.47;1.42;;;3.20;99.90;;;;;;5098726;27;20055;-84
2022/02/04 16:05:57;;;;;;;6.97;1.80;;;3.20;99.90;;;;;;5124085;27;20370;-85
2022/02/04 16:08:23;;;;;;;1.65;1.38;;;3.20;99.90;;;;;;5111962;28;20054;-85
2022/02/04 16:10:58;;;;;;;2.28;2.08;;;3.20;99.90;;;;;;5103750;27;20122;-84
2022/02/04 16:15:59;;;;;;;2.92;1.42;;;3.20;99.90;;;;;;5095956;28;20057;-85
2022/02/04 16:18:30;;;;;;;1.95;1.42;;;3.20;99.90;;;;;;5104651;28;20369;-82
2022/02/04 16:24:00;;;;;;;2.42;1.20;;;3.20;99.90;;;;;;5106485;28;20093;-87
2022/02/04 16:28:52;;;;;;;7.35;2.05;;;3.20;99.90;;;;;;5118451;27;20556;-84
2022/02/04 16:31:18;;;;;;;0.80;0.80;;;3.30;99.90;;;;;;5102841;28;20078;-84
2022/02/04 16:33:46;;;;;;;1.20;1.02;;;3.90;99.90;;;;;;5096310;28;20093;-86
2022/02/04 16:36:18;;;;;;;6.75;2.28;;;3.20;99.90;;;;;;5120507;28;20039;-84
2022/02/04 16:38:52;;;;;;;1.25;1.15;;;3.40;99.90;;;;;;5112165;28;20092;-84
2022/02/04 16:41:25;;;;;;;9.15;1.25;;;3.20;99.90;;;;;;5127236;27;20071;-84
2022/02/04 16:43:51;;;;;;;0.80;0.80;;;3.20;99.90;;;;;;5100365;28;20046;-84
2022/02/04 16:46:17;;;;;;;1.20;1.10;;;3.20;99.90;;;;;;5099913;28;20118;-84
2022/02/04 16:48:42;;;;;;;1.70;1.60;;;3.20;99.90;;;;;;5095935;28;20031;-85
2022/02/04 16:51:10;;;;;;;0.90;0.90;;;3.20;99.90;;;;;;5085165;28;20035;-84
2022/02/04 16:53:36;;;;;;;4.25;1.35;;;3.20;99.90;;;;;;5071600;28;20078;-83
2022/02/04 16:56:03;;;;;;;5.25;1.65;;;3.20;99.90;;;;;;5093729;28;20081;-84
2022/02/04 16:58:30;;;;;;;0.88;0.88;;;3.20;99.90;;;;;;5110876;28;20370;-83
2022/02/04 17:00:57;;;;;;;1.85;0.95;;;3.20;99.90;;;;;;5110302;28;20082;-83
2022/02/04 17:03:23;;;;;;;4.28;2.38;;;3.20;99.90;;;;;;5074263;28;20043;-83
2022/02/04 17:05:55;;;;;;;1.20;1.10;;;3.30;99.90;;;;;;5090166;28;20036;-84
2022/02/04 17:08:33;;;;;;;1.70;0.90;;;3.20;99.90;;;;;;5092138;28;20054;-82
2022/02/04 17:11:07;;;;;;;0.70;0.70;;;3.20;99.90;;;;;;5114920;28;20046;-84
2022/02/04 17:13:34;;;;;;;1.20;1.10;;;3.20;99.90;;;;;;5111343;28;20040;-84
2022/02/04 17:15:59;;;;;;;3.08;1.10;;;3.30;99.90;;;;;;5096473;28;20027;-83
2022/02/04 17:18:26;;;;;;;2.95;1.05;;;3.20;99.90;;;;;;5119210;28;20035;-83
2022/02/04 17:20:51;;;;;;;;;;;3.30;99.90;;;;;;5110784;28;20039;-83
2022/02/04 17:23:27;;;;;;;1.13;1.02;;;3.30;99.90;;;;;;5115927;28;19923;-83
2022/02/04 17:25:55;;;;;;;1.70;1.10;;;3.30;99.90;;;;;;5111179;28;20062;-82
2022/02/04 17:28:27;;;;;;;1.38;1.10;;;3.30;99.90;;;;;;5113112;28;20054;-83
2022/02/04 17:30:54;;;;;;;1.27;1.00;;;3.30;99.90;;;;;;5127471;28;20119;-84
2022/02/04 17:33:19;;;;;;;0.90;0.90;;;3.20;99.90;;;;;;5113306;28;20497;-82
2022/02/04 17:35:45;;;;;;;8.63;1.17;;;3.20;99.90;;;;;;5070066;28;20051;-83
2022/02/04 17:38:12;;;;;;;2.78;1.00;;;3.20;99.90;;;;;;5114512;27;20043;-82
2022/02/04 17:40:38;;;;;;;2.70;0.90;;;3.70;99.90;;;;;;5114730;27;20048;-81
2022/02/04 17:43:04;;;;;;;1.65;1.15;;;3.20;99.90;;;;;;5118359;27;20183;-83
2022/02/04 17:45:30;;;;;;;2.47;1.00;;;3.40;99.90;;;;;;5114738;27;21851;-81
2022/02/04 17:48:05;;;;;;;1.17;1.08;;;3.10;99.90;;;;;;5118494;27;20046;-83
2022/02/04 17:50:37;;;;;;;2.75;1.67;;;3.10;99.90;;;;;;5113484;27;20076;-83
2022/02/04 17:53:14;;;;;;;4.47;1.10;;;3.00;99.90;;;;;;5114199;28;20048;-84
2022/02/04 17:55:48;;;;;;;6.63;1.60;;;3.00;99.90;;;;;;5115526;27;20027;-82
2022/02/04 17:58:25;;;;;;;7.03;1.42;;;3.40;99.90;;;;;;5115332;27;20414;-83
2022/02/04 18:08:21;;;;;;;3.92;1.30;;;3.00;99.90;;;;;;5116867;27;20051;-81
2022/02/04 18:10:47;;;;;;;1.15;1.05;;;3.10;99.90;;;;;;5121779;27;20118;-82
2022/02/04 18:13:13;;;;;;;1.20;1.15;;;3.10;99.90;;;;;;5121195;27;20114;-84
2022/02/04 18:15:42;;;;;;;5.65;1.02;;;3.00;99.90;;;;;;5100287;27;20615;-83
2022/02/04 18:18:15;;;;;;;2.25;1.17;;;3.00;99.90;;;;;;5114905;27;20043;-80
2022/02/04 18:20:41;;;;;;;2.00;1.65;;;3.00;99.90;;;;;;5107254;27;20054;-83
2022/02/04 18:23:07;;;;;;;1.58;1.45;;;3.90;99.90;;;;;;5111180;28;20122;-81
2022/02/04 18:25:34;;;;;;;2.25;1.27;;;3.00;99.90;;;;;;5098833;28;20048;-80
2022/02/04 18:28:00;;;;;;;1.15;1.05;;;3.00;99.90;;;;;;5104419;27;20042;-83
2022/02/04 18:30:30;;;;;;;2.83;0.85;;;3.00;99.90;;;;;;5117539;27;20040;-83
2022/02/04 18:32:55;;;;;;;7.93;2.03;;;3.00;99.90;;;;;;5121865;27;20146;-82
2022/02/04 18:35:21;;;;;;;3.22;1.40;;;3.10;99.90;;;;;;5104650;27;20183;-84
2022/02/04 18:38:02;;;;;;;1.02;0.98;;;3.40;99.90;;;;;;5112253;27;20050;-83
2022/02/04 18:43:24;;;;;;;1.83;1.10;;;3.60;99.90;;;;;;5112267;27;20176;-83
2022/02/04 18:45:58;;;;;;;5.60;1.40;;;3.30;99.90;;;;;;5126068;27;20044;-82
2022/02/04 18:48:26;;;;;;;2.00;1.52;;;3.30;99.90;;;;;;5114041;27;20628;-82
2022/02/04 18:58:25;;;;;;;8.00;1.70;;;3.80;99.90;;;;;;5102041;28;20062;-82
2022/02/04 19:00:53;;;;;;;6.75;1.70;;;3.60;99.90;;;;;;5113869;27;20048;-81
2022/02/04 19:03:31;;;;;;;1.55;1.20;;;3.60;99.90;;;;;;5113252;27;20387;-81
2022/02/04 19:06:11;;;;;;;1.67;1.58;;;3.70;99.90;;;;;;5121678;27;20104;-81
2022/02/04 19:08:46;;;;;;;0.82;0.82;;;3.80;99.90;;;;;;5111354;27;20075;-82
2022/02/04 19:11:15;;;;;;;4.32;1.42;;;3.80;99.90;;;;;;5116103;27;20039;-84
2022/02/04 19:13:47;;;;;;;1.40;1.05;;;3.80;99.90;;;;;;5116923;27;20458;-81
2022/02/04 19:17:03;;;;;;;3.00;1.63;;;3.70;99.90;;;;;;5098124;27;20376;-80
2022/02/04 19:21:51;;;;;;;4.40;1.00;;;3.80;99.90;;;;;;5110257;27;20087;-82
2022/02/04 19:24:18;;;;;;;2.90;1.20;;;4.40;99.90;;;;;;5105053;27;20108;-82
2022/02/04 19:26:44;;;;;;;4.40;1.27;;;3.80;99.90;;;;;;5106844;28;20089;-83
2022/02/04 19:29:10;;;;;;;1.77;1.30;;;3.80;99.90;;;;;;5113603;27;20670;-82
2022/02/04 19:31:48;;;;;;;6.13;2.30;;;3.80;99.90;;;;;;5111351;27;20544;-82
2022/02/04 19:34:14;;;;;;;1.35;1.20;;;3.90;99.90;;;;;;5110429;27;20514;-83
2022/02/04 19:36:40;;;;;;;3.15;1.23;;;3.90;99.90;;;;;;5098814;27;20040;-80
2022/02/04 19:39:06;;;;;;;1.15;1.05;;;3.90;99.90;;;;;;5124671;27;20112;-84
2022/02/04 19:41:33;;;;;;;;;;;3.80;99.90;;;;;;5118047;27;20036;-84
2022/02/04 19:44:00;;;;;;;2.92;1.60;;;3.80;99.90;;;;;;5116044;27;19942;-82
2022/02/04 19:46:31;;;;;;;1.92;1.00;;;3.60;99.90;;;;;;5112646;27;20138;-83
2022/02/04 19:48:59;;;;;;;4.30;1.38;;;4.00;99.90;;;;;;5094570;28;20100;-82
2022/02/04 19:51:36;;;;;;;2.88;1.42;;;3.50;99.90;;;;;;5116905;27;20047;-84